createdAt,value
2022-08-31T00:01:18.650Z,1.30
2022-08-31T00:06:21.972Z,1.00
2022-08-31T00:11:30.186Z,1.10
2022-08-31T00:16:39.764Z,1.10
2022-08-31T00:21:42.884Z,1.10
2022-08-31T00:26:47.843Z,1.40
2022-08-31T00:31:50.634Z,1.60
2022-08-31T00:36:53.821Z,1.30
2022-08-31T00:41:56.799Z,1.10
2022-08-31T00:46:59.721Z,1.20
2022-08-31T00:52:16.052Z,1.00
2022-08-31T00:57:20.886Z,1.20
2022-08-31T01:02:33.161Z,1.20
2022-08-31T01:07:36.906Z,1.30
2022-08-31T01:12:42.592Z,1.10
2022-08-31T01:17:49.378Z,1.40
2022-08-31T01:22:52.256Z,1.20
2022-08-31T01:27:54.989Z,1.40
2022-08-31T01:32:57.723Z,1.30
2022-08-31T01:38:00.736Z,1.30
2022-08-31T01:43:03.676Z,1.30
2022-08-31T01:48:06.815Z,1.60
2022-08-31T01:53:09.752Z,1.50
2022-08-31T01:58:13.481Z,1.30
2022-08-31T02:03:16.181Z,1.30
2022-08-31T02:08:18.928Z,1.60
2022-08-31T02:13:21.745Z,1.80
2022-08-31T02:18:26.252Z,1.70
2022-08-31T02:23:28.948Z,1.70
2022-08-31T02:28:31.741Z,1.50
2022-08-31T02:33:34.838Z,1.60
2022-08-31T02:38:38.368Z,1.50
2022-08-31T02:43:41.048Z,1.30
2022-08-31T02:48:43.795Z,1.30
2022-08-31T02:53:46.585Z,1.50
2022-08-31T02:58:55.112Z,1.40
2022-08-31T03:03:58.507Z,1.30
2022-08-31T03:09:01.254Z,1.30
2022-08-31T03:14:03.999Z,1.10
2022-08-31T03:19:08.137Z,1.00
2022-08-31T03:24:11.168Z,1.20
2022-08-31T03:29:13.861Z,1.00
2022-08-31T03:34:16.643Z,1.20
2022-08-31T03:39:19.358Z,1.10
2022-08-31T03:44:23.587Z,1.30
2022-08-31T03:49:26.746Z,1.30
2022-08-31T03:54:29.574Z,1.60
2022-08-31T03:59:32.653Z,1.10
2022-08-31T04:04:35.442Z,1.20
2022-08-31T04:09:38.392Z,1.20
2022-08-31T04:14:41.507Z,1.20
2022-08-31T04:19:44.999Z,1.10
2022-08-31T04:24:47.734Z,1.30
2022-08-31T04:29:50.510Z,1.80
2022-08-31T04:34:56.372Z,1.10
2022-08-31T04:40:01.449Z,0.70
2022-08-31T04:45:05.618Z,1.20
2022-08-31T04:50:12.957Z,0.90
2022-08-31T04:55:15.755Z,1.20
2022-08-31T05:00:19.133Z,1.80
2022-08-31T05:05:23.097Z,0.80
2022-08-31T05:10:26.696Z,0.90
2022-08-31T05:15:29.475Z,1.20
2022-08-31T05:20:33.015Z,1.10
2022-08-31T05:25:40.036Z,1.00
2022-08-31T05:30:45.868Z,1.50
2022-08-31T05:35:48.712Z,1.10
2022-08-31T05:40:55.505Z,0.90
2022-08-31T05:45:58.711Z,1.10
2022-08-31T05:51:04.815Z,1.20
2022-08-31T05:56:14.157Z,1.10
2022-08-31T06:01:26.348Z,0.90
2022-08-31T06:06:29.725Z,1.00
2022-08-31T06:11:34.735Z,0.80
2022-08-31T06:16:38.113Z,1.10
2022-08-31T06:21:49.851Z,0.90
2022-08-31T06:26:59.141Z,0.80
2022-08-31T06:32:10.300Z,0.80
2022-08-31T06:37:18.449Z,0.80
2022-08-31T06:42:22.058Z,0.60
2022-08-31T06:47:26.135Z,0.90
2022-08-31T06:52:28.821Z,0.60
2022-08-31T06:57:31.576Z,0.90
2022-08-31T07:02:34.823Z,0.60
2022-08-31T07:07:37.655Z,1.80
2022-08-31T07:12:40.540Z,0.90
2022-08-31T07:17:43.263Z,0.70
2022-08-31T07:22:46.122Z,0.80
2022-08-31T07:27:55.484Z,0.70
2022-08-31T07:32:58.309Z,0.50
2022-08-31T07:38:19.675Z,0.70
2022-08-31T07:43:22.546Z,0.60
2022-08-31T07:48:27.469Z,0.80
2022-08-31T07:53:31.682Z,1.10
2022-08-31T07:58:35.118Z,0.90
2022-08-31T08:03:40.996Z,0.80
2022-08-31T08:08:44.634Z,0.60
2022-08-31T08:13:48.209Z,0.50
2022-08-31T08:18:52.511Z,0.50
2022-08-31T08:23:55.982Z,0.60
2022-08-31T08:28:58.709Z,0.50
2022-08-31T08:34:01.478Z,0.50
2022-08-31T08:39:06.061Z,0.70
2022-08-31T08:44:18.077Z,0.50
2022-08-31T08:49:54.271Z,0.60
2022-08-31T08:55:02.315Z,0.70
2022-08-31T09:00:12.872Z,0.50
2022-08-31T09:05:38.140Z,1.30
2022-08-31T09:11:02.625Z,0.60
2022-08-31T09:16:48.156Z,0.60
2022-08-31T09:21:54.017Z,0.60
2022-08-31T09:27:17.823Z,0.60
2022-08-31T09:32:27.033Z,0.60
2022-08-31T09:37:46.251Z,0.50
2022-08-31T09:43:17.710Z,0.70
2022-08-31T09:48:56.236Z,0.50
2022-08-31T09:54:34.443Z,0.40
2022-08-31T10:05:07.167Z,0.70
2022-08-31T10:10:30.434Z,0.50
2022-08-31T10:15:48.608Z,0.50
2022-08-31T10:20:58.853Z,0.50
2022-08-31T10:26:10.846Z,0.50
2022-08-31T10:31:48.419Z,0.40
2022-08-31T10:36:54.911Z,0.40
2022-08-31T10:41:57.691Z,0.50
2022-08-31T10:47:05.830Z,0.50
2022-08-31T10:52:29.281Z,0.50
2022-08-31T10:57:53.149Z,0.60
2022-08-31T11:03:13.224Z,0.40
2022-08-31T11:08:49.965Z,0.40
2022-08-31T11:14:27.678Z,0.50
2022-08-31T11:19:50.287Z,0.50
2022-08-31T11:25:13.961Z,0.30
2022-08-31T11:30:29.089Z,0.30
2022-08-31T11:35:57.273Z,0.90
2022-08-31T11:41:01.214Z,0.80
2022-08-31T11:46:26.783Z,0.40
2022-08-31T11:51:40.976Z,0.60
2022-08-31T11:56:47.577Z,0.90
2022-08-31T12:01:50.426Z,0.60
2022-08-31T12:06:54.960Z,0.70
2022-08-31T12:12:58.908Z,0.90
2022-08-31T12:18:10.215Z,0.80
2022-08-31T12:23:37.744Z,0.50
2022-08-31T12:28:59.635Z,0.50
2022-08-31T12:34:17.057Z,0.80
2022-08-31T12:39:23.103Z,0.60
2022-08-31T12:44:46.417Z,0.50
2022-08-31T12:50:08.641Z,0.50
2022-08-31T12:55:28.259Z,0.70
2022-08-31T13:00:35.125Z,0.60
2022-08-31T13:05:38.972Z,0.40
2022-08-31T13:10:41.734Z,0.70
2022-08-31T13:15:44.527Z,0.40
2022-08-31T13:20:47.395Z,0.60
2022-08-31T13:26:19.825Z,0.60
2022-08-31T13:31:32.489Z,0.50
2022-08-31T13:36:55.191Z,0.60
2022-08-31T13:42:27.076Z,0.40
2022-08-31T13:47:47.553Z,0.30
2022-08-31T13:53:25.872Z,0.60
2022-08-31T13:58:31.897Z,0.40
2022-08-31T14:03:46.999Z,0.30
2022-08-31T14:09:16.451Z,0.50
2022-08-31T14:14:39.951Z,0.30
2022-08-31T14:19:44.328Z,0.40
2022-08-31T14:24:47.066Z,0.40
2022-08-31T14:29:51.379Z,0.50
2022-08-31T14:34:54.085Z,0.40
2022-08-31T14:40:07.583Z,0.50
2022-08-31T14:45:20.508Z,0.40
2022-08-31T14:50:25.479Z,0.40
2022-08-31T14:55:30.194Z,0.50
2022-08-31T15:00:34.278Z,0.50
2022-08-31T15:05:39.297Z,0.40
2022-08-31T15:10:42.037Z,0.40
2022-08-31T15:15:47.546Z,0.60
2022-08-31T15:20:51.933Z,0.60
2022-08-31T15:26:04.188Z,0.40
2022-08-31T15:31:13.429Z,0.70
2022-08-31T15:36:18.417Z,0.40
2022-08-31T15:41:21.328Z,0.50
2022-08-31T15:46:42.722Z,0.50
2022-08-31T15:51:49.144Z,0.30
2022-08-31T15:56:53.372Z,0.70
2022-08-31T16:01:56.208Z,0.60
2022-08-31T16:07:00.922Z,0.60
2022-08-31T16:12:04.185Z,0.40
2022-08-31T16:17:09.542Z,0.60
2022-08-31T16:22:13.242Z,0.50
2022-08-31T16:27:16.944Z,0.60
2022-08-31T16:32:20.310Z,0.60
2022-08-31T16:37:24.028Z,0.60
2022-08-31T16:42:26.855Z,0.50
2022-08-31T16:47:29.577Z,0.80
2022-08-31T16:52:32.612Z,0.50
2022-08-31T16:57:35.605Z,0.70
2022-08-31T17:02:38.445Z,0.70
2022-08-31T17:07:42.784Z,0.70
2022-08-31T17:12:48.420Z,0.80
2022-08-31T17:17:51.192Z,0.80
2022-08-31T17:22:53.946Z,0.40
2022-08-31T17:28:00.344Z,0.60
2022-08-31T17:33:05.877Z,0.80
2022-08-31T17:38:08.614Z,0.90
2022-08-31T17:43:14.438Z,0.80
2022-08-31T17:48:17.172Z,0.70
2022-08-31T17:53:22.157Z,0.70
2022-08-31T17:58:24.986Z,0.80
2022-08-31T18:03:27.728Z,0.60
2022-08-31T18:08:37.576Z,0.60
2022-08-31T18:13:41.622Z,0.80
2022-08-31T18:18:47.817Z,0.60
2022-08-31T18:23:52.446Z,0.80
2022-08-31T18:28:55.516Z,0.80
2022-08-31T18:34:03.250Z,0.60
2022-08-31T18:39:08.997Z,0.70
2022-08-31T18:44:30.862Z,0.70
2022-08-31T18:49:38.814Z,0.70
2022-08-31T18:54:43.352Z,0.70
2022-08-31T18:59:46.375Z,0.60
2022-08-31T19:04:50.736Z,0.80
2022-08-31T19:09:55.032Z,1.00
2022-08-31T19:15:00.062Z,0.80
2022-08-31T19:20:04.076Z,1.00
2022-08-31T19:25:10.034Z,0.70
2022-08-31T19:30:14.197Z,1.00
2022-08-31T19:35:18.336Z,1.20
2022-08-31T19:40:21.406Z,0.70
2022-08-31T19:45:24.672Z,0.80
2022-08-31T19:50:28.032Z,0.90
2022-08-31T19:55:30.827Z,0.90
2022-08-31T20:00:36.126Z,0.90
2022-08-31T20:05:41.745Z,0.90
2022-08-31T20:10:45.708Z,1.00
2022-08-31T20:15:48.609Z,1.00
2022-08-31T20:20:52.890Z,0.90
2022-08-31T20:25:56.452Z,1.10
2022-08-31T20:31:06.427Z,1.20
2022-08-31T20:36:21.308Z,1.10
2022-08-31T20:41:32.273Z,0.90
2022-08-31T20:46:53.745Z,0.90
2022-08-31T20:51:57.338Z,1.10
2022-08-31T20:57:02.463Z,1.00
2022-08-31T21:02:06.477Z,0.90
2022-08-31T21:07:13.489Z,0.80
2022-08-31T21:12:18.215Z,0.90
2022-08-31T21:17:22.249Z,1.00
2022-08-31T21:22:25.858Z,0.90
2022-08-31T21:27:29.534Z,0.90
2022-08-31T21:32:32.761Z,0.70
2022-08-31T21:37:35.515Z,0.80
2022-08-31T21:42:38.358Z,1.10
2022-08-31T21:47:41.085Z,1.10
2022-08-31T21:52:43.920Z,0.80
2022-08-31T21:57:46.752Z,0.80
2022-08-31T22:02:50.897Z,1.00
2022-08-31T22:07:53.778Z,0.80
2022-08-31T22:12:56.527Z,0.90
2022-08-31T22:18:25.914Z,0.80
2022-08-31T22:23:22.206Z,0.70
2022-08-31T22:28:27.642Z,0.60
2022-08-31T22:33:30.499Z,0.70
2022-08-31T22:38:34.896Z,1.00
2022-08-31T22:43:38.871Z,1.00
2022-08-31T22:48:41.753Z,0.90
2022-08-31T22:53:46.403Z,0.80
2022-08-31T22:58:49.695Z,0.60
2022-08-31T23:03:57.133Z,0.70
2022-08-31T23:09:00.312Z,0.90
2022-08-31T23:14:07.413Z,0.90
2022-08-31T23:19:17.643Z,0.60
2022-08-31T23:24:24.262Z,0.90
2022-08-31T23:29:28.050Z,0.80
2022-08-31T23:34:33.980Z,0.90
2022-08-31T23:39:39.534Z,1.00
2022-08-31T23:44:43.784Z,0.70
2022-08-31T23:49:51.332Z,0.80
2022-08-31T23:55:00.782Z,0.80
